sensor_id;sensor_type;location;lat;lon;timestamp;P1;durP1;ratioP1;P2;durP2;ratioP2
11620;SDS011;5866;49.094;11.900;2024-01-30T00:01:08;60.17;;;55.03;;
11620;SDS011;5866;49.094;11.900;2024-01-30T00:03:37;54.43;;;49.50;;
11620;SDS011;5866;49.094;11.900;2024-01-30T00:06:05;48.03;;;43.33;;
11620;SDS011;5866;49.094;11.900;2024-01-30T00:08:33;47.03;;;42.63;;
11620;SDS011;5866;49.094;11.900;2024-01-30T00:11:00;54.03;;;49.37;;
11620;SDS011;5866;49.094;11.900;2024-01-30T00:13:28;73.00;;;67.67;;
11620;SDS011;5866;49.094;11.900;2024-01-30T00:15:55;64.13;;;58.50;;
11620;SDS011;5866;49.094;11.900;2024-01-30T00:18:23;51.23;;;46.50;;
11620;SDS011;5866;49.094;11.900;2024-01-30T00:20:52;47.23;;;42.63;;
11620;SDS011;5866;49.094;11.900;2024-01-30T00:23:20;43.63;;;39.43;;
11620;SDS011;5866;49.094;11.900;2024-01-30T00:25:47;36.20;;;32.40;;
11620;SDS011;5866;49.094;11.900;2024-01-30T00:28:15;44.83;;;40.33;;
11620;SDS011;5866;49.094;11.900;2024-01-30T00:30:43;57.57;;;52.47;;
11620;SDS011;5866;49.094;11.900;2024-01-30T00:33:11;55.93;;;50.37;;
11620;SDS011;5866;49.094;11.900;2024-01-30T00:35:38;67.50;;;61.43;;
11620;SDS011;5866;49.094;11.900;2024-01-30T00:38:07;71.17;;;65.17;;
11620;SDS011;5866;49.094;11.900;2024-01-30T00:40:35;68.13;;;62.53;;
11620;SDS011;5866;49.094;11.900;2024-01-30T00:43:02;52.63;;;47.90;;
11620;SDS011;5866;49.094;11.900;2024-01-30T00:45:30;46.90;;;42.47;;
11620;SDS011;5866;49.094;11.900;2024-01-30T00:47:58;42.07;;;38.13;;
11620;SDS011;5866;49.094;11.900;2024-01-30T00:50:25;41.60;;;37.43;;
11620;SDS011;5866;49.094;11.900;2024-01-30T00:52:53;43.93;;;39.80;;
11620;SDS011;5866;49.094;11.900;2024-01-30T00:55:22;37.83;;;33.17;;
11620;SDS011;5866;49.094;11.900;2024-01-30T00:57:49;38.87;;;34.83;;
11620;SDS011;5866;49.094;11.900;2024-01-30T01:00:17;38.67;;;34.90;;
11620;SDS011;5866;49.094;11.900;2024-01-30T01:02:47;38.27;;;34.20;;
11620;SDS011;5866;49.094;11.900;2024-01-30T01:05:14;34.50;;;30.37;;
11620;SDS011;5866;49.094;11.900;2024-01-30T01:07:42;33.93;;;30.37;;
11620;SDS011;5866;49.094;11.900;2024-01-30T01:10:10;35.63;;;31.93;;
11620;SDS011;5866;49.094;11.900;2024-01-30T01:12:41;50.07;;;44.80;;
11620;SDS011;5866;49.094;11.900;2024-01-30T01:15:09;73.47;;;65.70;;
11620;SDS011;5866;49.094;11.900;2024-01-30T01:17:37;53.57;;;48.83;;
11620;SDS011;5866;49.094;11.900;2024-01-30T01:20:06;51.77;;;46.97;;
11620;SDS011;5866;49.094;11.900;2024-01-30T01:22:34;49.97;;;45.23;;
11620;SDS011;5866;49.094;11.900;2024-01-30T01:25:02;51.40;;;46.60;;
11620;SDS011;5866;49.094;11.900;2024-01-30T01:27:30;50.10;;;44.93;;
11620;SDS011;5866;49.094;11.900;2024-01-30T01:30:00;52.83;;;47.57;;
11620;SDS011;5866;49.094;11.900;2024-01-30T01:32:28;49.73;;;44.80;;
11620;SDS011;5866;49.094;11.900;2024-01-30T01:34:55;48.27;;;43.07;;
11620;SDS011;5866;49.094;11.900;2024-01-30T01:37:23;45.23;;;40.77;;
11620;SDS011;5866;49.094;11.900;2024-01-30T01:39:52;48.50;;;43.63;;
11620;SDS011;5866;49.094;11.900;2024-01-30T01:42:20;45.87;;;40.90;;
11620;SDS011;5866;49.094;11.900;2024-01-30T01:44:48;44.67;;;39.77;;
11620;SDS011;5866;49.094;11.900;2024-01-30T01:47:18;45.20;;;39.70;;
11620;SDS011;5866;49.094;11.900;2024-01-30T01:49:45;48.13;;;43.13;;
11620;SDS011;5866;49.094;11.900;2024-01-30T01:52:13;46.83;;;41.93;;
11620;SDS011;5866;49.094;11.900;2024-01-30T01:54:41;45.30;;;40.47;;
11620;SDS011;5866;49.094;11.900;2024-01-30T01:57:09;48.47;;;43.53;;
11620;SDS011;5866;49.094;11.900;2024-01-30T01:59:36;50.13;;;45.00;;
11620;SDS011;5866;49.094;11.900;2024-01-30T02:02:04;52.67;;;47.43;;
11620;SDS011;5866;49.094;11.900;2024-01-30T02:04:35;60.87;;;55.03;;
11620;SDS011;5866;49.094;11.900;2024-01-30T02:07:03;69.13;;;63.23;;
11620;SDS011;5866;49.094;11.900;2024-01-30T02:09:31;57.50;;;51.90;;
11620;SDS011;5866;49.094;11.900;2024-01-30T02:11:58;55.17;;;49.43;;
11620;SDS011;5866;49.094;11.900;2024-01-30T02:14:26;52.10;;;46.90;;
11620;SDS011;5866;49.094;11.900;2024-01-30T02:16:56;45.77;;;41.30;;
11620;SDS011;5866;49.094;11.900;2024-01-30T02:19:24;51.40;;;42.17;;
11620;SDS011;5866;49.094;11.900;2024-01-30T02:21:53;48.50;;;43.20;;
11620;SDS011;5866;49.094;11.900;2024-01-30T02:24:21;49.53;;;44.20;;
11620;SDS011;5866;49.094;11.900;2024-01-30T02:26:50;49.90;;;44.53;;
11620;SDS011;5866;49.094;11.900;2024-01-30T02:29:17;51.07;;;44.80;;
11620;SDS011;5866;49.094;11.900;2024-01-30T02:31:45;64.07;;;57.20;;
11620;SDS011;5866;49.094;11.900;2024-01-30T02:34:13;55.60;;;47.90;;
11620;SDS011;5866;49.094;11.900;2024-01-30T02:36:42;54.47;;;43.90;;
11620;SDS011;5866;49.094;11.900;2024-01-30T02:39:11;61.90;;;45.77;;
11620;SDS011;5866;49.094;11.900;2024-01-30T02:41:38;53.83;;;43.63;;
11620;SDS011;5866;49.094;11.900;2024-01-30T02:44:06;49.80;;;35.77;;
11620;SDS011;5866;49.094;11.900;2024-01-30T02:46:33;69.20;;;62.40;;
11620;SDS011;5866;49.094;11.900;2024-01-30T02:49:01;71.80;;;65.27;;
11620;SDS011;5866;49.094;11.900;2024-01-30T02:51:29;73.70;;;67.00;;
11620;SDS011;5866;49.094;11.900;2024-01-30T02:53:57;76.10;;;68.67;;
11620;SDS011;5866;49.094;11.900;2024-01-30T02:56:25;76.50;;;68.87;;
11620;SDS011;5866;49.094;11.900;2024-01-30T02:58:53;76.13;;;64.40;;
11620;SDS011;5866;49.094;11.900;2024-01-30T03:01:21;78.70;;;70.37;;
11620;SDS011;5866;49.094;11.900;2024-01-30T03:03:50;83.47;;;75.17;;
11620;SDS011;5866;49.094;11.900;2024-01-30T03:06:18;81.73;;;73.27;;
11620;SDS011;5866;49.094;11.900;2024-01-30T03:08:46;87.27;;;78.63;;
11620;SDS011;5866;49.094;11.900;2024-01-30T03:11:13;91.63;;;83.50;;
11620;SDS011;5866;49.094;11.900;2024-01-30T03:13:43;94.30;;;85.90;;
11620;SDS011;5866;49.094;11.900;2024-01-30T03:16:11;80.53;;;72.97;;
11620;SDS011;5866;49.094;11.900;2024-01-30T03:18:39;91.33;;;82.87;;
11620;SDS011;5866;49.094;11.900;2024-01-30T03:21:06;97.43;;;88.70;;
11620;SDS011;5866;49.094;11.900;2024-01-30T03:23:34;96.43;;;87.90;;
11620;SDS011;5866;49.094;11.900;2024-01-30T03:26:01;72.97;;;65.87;;
11620;SDS011;5866;49.094;11.900;2024-01-30T03:28:30;78.30;;;71.30;;
11620;SDS011;5866;49.094;11.900;2024-01-30T03:30:59;57.73;;;47.43;;
11620;SDS011;5866;49.094;11.900;2024-01-30T03:33:27;52.27;;;37.17;;
11620;SDS011;5866;49.094;11.900;2024-01-30T03:35:54;53.13;;;33.53;;
11620;SDS011;5866;49.094;11.900;2024-01-30T03:38:22;50.63;;;32.30;;
11620;SDS011;5866;49.094;11.900;2024-01-30T03:40:49;46.87;;;33.97;;
11620;SDS011;5866;49.094;11.900;2024-01-30T03:43:17;58.73;;;35.77;;
11620;SDS011;5866;49.094;11.900;2024-01-30T03:45:45;53.70;;;42.47;;
11620;SDS011;5866;49.094;11.900;2024-01-30T03:48:14;61.03;;;35.67;;
11620;SDS011;5866;49.094;11.900;2024-01-30T03:50:41;56.90;;;46.63;;
11620;SDS011;5866;49.094;11.900;2024-01-30T03:53:09;77.37;;;70.03;;
11620;SDS011;5866;49.094;11.900;2024-01-30T03:55:36;116.63;;;107.30;;
11620;SDS011;5866;49.094;11.900;2024-01-30T03:58:04;120.10;;;110.07;;
11620;SDS011;5866;49.094;11.900;2024-01-30T04:00:32;105.60;;;96.93;;
11620;SDS011;5866;49.094;11.900;2024-01-30T04:02:59;109.73;;;100.47;;
11620;SDS011;5866;49.094;11.900;2024-01-30T04:05:28;107.23;;;97.97;;
11620;SDS011;5866;49.094;11.900;2024-01-30T04:07:56;111.43;;;102.10;;
11620;SDS011;5866;49.094;11.900;2024-01-30T04:10:24;108.37;;;99.37;;
11620;SDS011;5866;49.094;11.900;2024-01-30T04:12:52;110.17;;;100.87;;
11620;SDS011;5866;49.094;11.900;2024-01-30T04:15:20;87.77;;;79.43;;
11620;SDS011;5866;49.094;11.900;2024-01-30T04:17:47;83.97;;;75.50;;
11620;SDS011;5866;49.094;11.900;2024-01-30T04:20:15;78.37;;;70.20;;
11620;SDS011;5866;49.094;11.900;2024-01-30T04:22:45;78.97;;;70.80;;
11620;SDS011;5866;49.094;11.900;2024-01-30T04:25:13;96.00;;;87.17;;
11620;SDS011;5866;49.094;11.900;2024-01-30T04:27:41;117.23;;;107.40;;
11620;SDS011;5866;49.094;11.900;2024-01-30T04:30:09;121.03;;;111.27;;
11620;SDS011;5866;49.094;11.900;2024-01-30T04:32:37;114.73;;;105.60;;
11620;SDS011;5866;49.094;11.900;2024-01-30T04:35:05;98.10;;;89.37;;
11620;SDS011;5866;49.094;11.900;2024-01-30T04:37:37;95.60;;;86.63;;
11620;SDS011;5866;49.094;11.900;2024-01-30T04:40:06;78.83;;;70.30;;
11620;SDS011;5866;49.094;11.900;2024-01-30T04:42:35;68.83;;;54.07;;
11620;SDS011;5866;49.094;11.900;2024-01-30T04:45:03;71.07;;;49.57;;
11620;SDS011;5866;49.094;11.900;2024-01-30T04:47:32;72.90;;;48.17;;
11620;SDS011;5866;49.094;11.900;2024-01-30T04:50:00;107.53;;;97.00;;
11620;SDS011;5866;49.094;11.900;2024-01-30T04:52:28;94.23;;;84.00;;
11620;SDS011;5866;49.094;11.900;2024-01-30T04:54:56;84.23;;;74.63;;
11620;SDS011;5866;49.094;11.900;2024-01-30T04:57:25;108.57;;;97.33;;
11620;SDS011;5866;49.094;11.900;2024-01-30T04:59:53;68.73;;;39.37;;
11620;SDS011;5866;49.094;11.900;2024-01-30T05:02:20;66.90;;;38.90;;
11620;SDS011;5866;49.094;11.900;2024-01-30T05:04:48;74.27;;;46.47;;
11620;SDS011;5866;49.094;11.900;2024-01-30T05:07:16;72.00;;;49.43;;
11620;SDS011;5866;49.094;11.900;2024-01-30T05:09:44;71.70;;;48.33;;
11620;SDS011;5866;49.094;11.900;2024-01-30T05:12:12;79.47;;;51.33;;
11620;SDS011;5866;49.094;11.900;2024-01-30T05:14:41;77.63;;;59.50;;
11620;SDS011;5866;49.094;11.900;2024-01-30T05:17:08;94.30;;;75.90;;
11620;SDS011;5866;49.094;11.900;2024-01-30T05:19:38;94.10;;;83.03;;
11620;SDS011;5866;49.094;11.900;2024-01-30T05:22:06;76.67;;;47.17;;
11620;SDS011;5866;49.094;11.900;2024-01-30T05:24:34;73.77;;;43.43;;
11620;SDS011;5866;49.094;11.900;2024-01-30T05:27:03;84.13;;;60.90;;
11620;SDS011;5866;49.094;11.900;2024-01-30T05:29:30;87.93;;;63.63;;
11620;SDS011;5866;49.094;11.900;2024-01-30T05:31:59;79.77;;;55.27;;
11620;SDS011;5866;49.094;11.900;2024-01-30T05:34:27;81.53;;;51.33;;
11620;SDS011;5866;49.094;11.900;2024-01-30T05:36:54;88.20;;;51.20;;
11620;SDS011;5866;49.094;11.900;2024-01-30T05:39:22;93.23;;;69.13;;
11620;SDS011;5866;49.094;11.900;2024-01-30T05:41:49;109.27;;;93.43;;
11620;SDS011;5866;49.094;11.900;2024-01-30T05:44:17;109.30;;;77.60;;
11620;SDS011;5866;49.094;11.900;2024-01-30T05:46:45;114.20;;;92.70;;
11620;SDS011;5866;49.094;11.900;2024-01-30T05:49:13;107.10;;;75.50;;
11620;SDS011;5866;49.094;11.900;2024-01-30T05:51:41;105.93;;;77.00;;
11620;SDS011;5866;49.094;11.900;2024-01-30T05:54:09;101.93;;;80.90;;
11620;SDS011;5866;49.094;11.900;2024-01-30T05:56:36;109.90;;;93.27;;
11620;SDS011;5866;49.094;11.900;2024-01-30T05:59:04;117.40;;;104.93;;
11620;SDS011;5866;49.094;11.900;2024-01-30T06:01:31;128.63;;;115.47;;
11620;SDS011;5866;49.094;11.900;2024-01-30T06:03:59;100.33;;;80.60;;
11620;SDS011;5866;49.094;11.900;2024-01-30T06:06:29;98.30;;;63.23;;
11620;SDS011;5866;49.094;11.900;2024-01-30T06:08:56;80.10;;;47.37;;
11620;SDS011;5866;49.094;11.900;2024-01-30T06:11:24;84.37;;;48.27;;
11620;SDS011;5866;49.094;11.900;2024-01-30T06:13:51;84.23;;;50.87;;
11620;SDS011;5866;49.094;11.900;2024-01-30T06:16:19;83.90;;;52.80;;
11620;SDS011;5866;49.094;11.900;2024-01-30T06:18:47;82.10;;;46.50;;
11620;SDS011;5866;49.094;11.900;2024-01-30T06:21:15;81.23;;;46.47;;
11620;SDS011;5866;49.094;11.900;2024-01-30T06:23:44;79.90;;;49.53;;
11620;SDS011;5866;49.094;11.900;2024-01-30T06:26:12;77.23;;;48.83;;
11620;SDS011;5866;49.094;11.900;2024-01-30T06:28:39;85.47;;;51.33;;
11620;SDS011;5866;49.094;11.900;2024-01-30T06:31:07;84.37;;;50.90;;
11620;SDS011;5866;49.094;11.900;2024-01-30T06:33:34;89.07;;;52.43;;
11620;SDS011;5866;49.094;11.900;2024-01-30T06:36:02;85.47;;;49.63;;
11620;SDS011;5866;49.094;11.900;2024-01-30T06:38:30;90.50;;;54.57;;
11620;SDS011;5866;49.094;11.900;2024-01-30T06:40:59;92.93;;;54.97;;
11620;SDS011;5866;49.094;11.900;2024-01-30T06:43:26;96.33;;;53.93;;
11620;SDS011;5866;49.094;11.900;2024-01-30T06:45:54;92.93;;;53.30;;
11620;SDS011;5866;49.094;11.900;2024-01-30T06:48:21;97.73;;;56.93;;
11620;SDS011;5866;49.094;11.900;2024-01-30T06:50:49;105.47;;;63.93;;
11620;SDS011;5866;49.094;11.900;2024-01-30T06:53:17;90.30;;;59.33;;
11620;SDS011;5866;49.094;11.900;2024-01-30T06:55:45;103.67;;;68.53;;
11620;SDS011;5866;49.094;11.900;2024-01-30T06:58:14;103.07;;;66.57;;
11620;SDS011;5866;49.094;11.900;2024-01-30T07:00:42;104.60;;;66.17;;
11620;SDS011;5866;49.094;11.900;2024-01-30T07:03:09;98.93;;;60.87;;
11620;SDS011;5866;49.094;11.900;2024-01-30T07:05:37;98.30;;;62.93;;
11620;SDS011;5866;49.094;11.900;2024-01-30T07:08:04;101.33;;;57.80;;
11620;SDS011;5866;49.094;11.900;2024-01-30T07:10:33;104.20;;;58.77;;
11620;SDS011;5866;49.094;11.900;2024-01-30T07:13:01;100.17;;;63.63;;
11620;SDS011;5866;49.094;11.900;2024-01-30T07:15:31;102.83;;;64.23;;
11620;SDS011;5866;49.094;11.900;2024-01-30T07:17:59;100.97;;;63.97;;
11620;SDS011;5866;49.094;11.900;2024-01-30T07:20:27;100.30;;;57.23;;
11620;SDS011;5866;49.094;11.900;2024-01-30T07:22:56;101.93;;;59.43;;
11620;SDS011;5866;49.094;11.900;2024-01-30T07:25:24;101.53;;;57.67;;
11620;SDS011;5866;49.094;11.900;2024-01-30T07:27:53;97.50;;;57.37;;
11620;SDS011;5866;49.094;11.900;2024-01-30T07:30:21;96.97;;;58.97;;
11620;SDS011;5866;49.094;11.900;2024-01-30T07:32:51;104.10;;;57.97;;
11620;SDS011;5866;49.094;11.900;2024-01-30T07:35:18;103.97;;;60.93;;
11620;SDS011;5866;49.094;11.900;2024-01-30T07:37:46;96.60;;;56.93;;
11620;SDS011;5866;49.094;11.900;2024-01-30T07:40:14;100.83;;;56.67;;
11620;SDS011;5866;49.094;11.900;2024-01-30T07:42:41;95.83;;;53.83;;
11620;SDS011;5866;49.094;11.900;2024-01-30T07:45:09;95.73;;;55.93;;
11620;SDS011;5866;49.094;11.900;2024-01-30T07:47:37;87.17;;;58.73;;
11620;SDS011;5866;49.094;11.900;2024-01-30T07:50:06;89.40;;;57.57;;
11620;SDS011;5866;49.094;11.900;2024-01-30T07:52:35;93.57;;;63.00;;
11620;SDS011;5866;49.094;11.900;2024-01-30T07:55:03;100.77;;;78.50;;
11620;SDS011;5866;49.094;11.900;2024-01-30T07:57:31;92.17;;;72.10;;
11620;SDS011;5866;49.094;11.900;2024-01-30T07:59:58;81.30;;;56.30;;
11620;SDS011;5866;49.094;11.900;2024-01-30T08:02:26;75.90;;;50.60;;
11620;SDS011;5866;49.094;11.900;2024-01-30T08:04:53;80.07;;;47.93;;
11620;SDS011;5866;49.094;11.900;2024-01-30T08:07:23;150.47;;;137.73;;
11620;SDS011;5866;49.094;11.900;2024-01-30T08:09:51;177.50;;;164.13;;
11620;SDS011;5866;49.094;11.900;2024-01-30T08:12:18;239.10;;;222.07;;
11620;SDS011;5866;49.094;11.900;2024-01-30T08:14:46;225.90;;;209.97;;
11620;SDS011;5866;49.094;11.900;2024-01-30T08:17:13;250.97;;;233.83;;
11620;SDS011;5866;49.094;11.900;2024-01-30T08:19:41;242.10;;;225.40;;
11620;SDS011;5866;49.094;11.900;2024-01-30T08:22:09;204.73;;;190.67;;
11620;SDS011;5866;49.094;11.900;2024-01-30T08:24:37;115.43;;;106.03;;
11620;SDS011;5866;49.094;11.900;2024-01-30T08:27:06;139.83;;;129.03;;
11620;SDS011;5866;49.094;11.900;2024-01-30T08:29:35;87.67;;;79.60;;
11620;SDS011;5866;49.094;11.900;2024-01-30T08:32:04;54.83;;;47.27;;
11620;SDS011;5866;49.094;11.900;2024-01-30T08:34:32;58.07;;;48.40;;
11620;SDS011;5866;49.094;11.900;2024-01-30T08:37:00;80.97;;;73.80;;
11620;SDS011;5866;49.094;11.900;2024-01-30T08:39:27;46.10;;;39.10;;
11620;SDS011;5866;49.094;11.900;2024-01-30T08:41:56;52.87;;;47.47;;
11620;SDS011;5866;49.094;11.900;2024-01-30T08:44:24;39.13;;;33.00;;
11620;SDS011;5866;49.094;11.900;2024-01-30T08:46:52;41.97;;;33.27;;
11620;SDS011;5866;49.094;11.900;2024-01-30T08:49:21;37.77;;;31.40;;
11620;SDS011;5866;49.094;11.900;2024-01-30T08:51:49;39.17;;;31.60;;
11620;SDS011;5866;49.094;11.900;2024-01-30T08:54:17;37.47;;;32.00;;
11620;SDS011;5866;49.094;11.900;2024-01-30T08:56:45;39.00;;;34.93;;
11620;SDS011;5866;49.094;11.900;2024-01-30T08:59:14;54.33;;;49.23;;
11620;SDS011;5866;49.094;11.900;2024-01-30T09:01:41;44.27;;;39.63;;
11620;SDS011;5866;49.094;11.900;2024-01-30T09:04:25;46.37;;;42.27;;
11620;SDS011;5866;49.094;11.900;2024-01-30T09:06:52;50.53;;;46.07;;
11620;SDS011;5866;49.094;11.900;2024-01-30T09:09:20;44.20;;;40.07;;
11620;SDS011;5866;49.094;11.900;2024-01-30T09:11:48;39.97;;;36.10;;
11620;SDS011;5866;49.094;11.900;2024-01-30T09:14:17;39.33;;;35.63;;
11620;SDS011;5866;49.094;11.900;2024-01-30T09:16:45;35.57;;;32.07;;
11620;SDS011;5866;49.094;11.900;2024-01-30T09:19:14;38.67;;;34.97;;
11620;SDS011;5866;49.094;11.900;2024-01-30T09:21:42;27.03;;;22.27;;
11620;SDS011;5866;49.094;11.900;2024-01-30T09:24:09;24.38;;;19.98;;
11620;SDS011;5866;49.094;11.900;2024-01-30T09:26:37;24.07;;;21.10;;
11620;SDS011;5866;49.094;11.900;2024-01-30T09:29:05;23.55;;;20.23;;
11620;SDS011;5866;49.094;11.900;2024-01-30T09:31:33;24.42;;;21.65;;
11620;SDS011;5866;49.094;11.900;2024-01-30T09:34:01;21.17;;;18.90;;
11620;SDS011;5866;49.094;11.900;2024-01-30T09:36:29;22.13;;;17.80;;
11620;SDS011;5866;49.094;11.900;2024-01-30T09:38:56;22.23;;;17.42;;
11620;SDS011;5866;49.094;11.900;2024-01-30T09:41:24;21.00;;;17.10;;
11620;SDS011;5866;49.094;11.900;2024-01-30T09:43:52;17.75;;;15.75;;
11620;SDS011;5866;49.094;11.900;2024-01-30T09:46:25;19.17;;;15.80;;
11620;SDS011;5866;49.094;11.900;2024-01-30T09:48:56;19.95;;;15.73;;
11620;SDS011;5866;49.094;11.900;2024-01-30T09:51:25;18.88;;;16.85;;
11620;SDS011;5866;49.094;11.900;2024-01-30T09:53:54;20.40;;;16.25;;
11620;SDS011;5866;49.094;11.900;2024-01-30T09:56:23;20.45;;;15.90;;
11620;SDS011;5866;49.094;11.900;2024-01-30T09:58:50;17.65;;;14.90;;
11620;SDS011;5866;49.094;11.900;2024-01-30T10:01:18;18.58;;;14.50;;
11620;SDS011;5866;49.094;11.900;2024-01-30T10:03:46;19.70;;;16.20;;
11620;SDS011;5866;49.094;11.900;2024-01-30T10:06:15;19.58;;;15.52;;
11620;SDS011;5866;49.094;11.900;2024-01-30T10:08:46;18.63;;;16.42;;
11620;SDS011;5866;49.094;11.900;2024-01-30T10:11:14;20.83;;;16.55;;
11620;SDS011;5866;49.094;11.900;2024-01-30T10:13:42;21.35;;;17.10;;
11620;SDS011;5866;49.094;11.900;2024-01-30T10:16:09;24.75;;;18.00;;
11620;SDS011;5866;49.094;11.900;2024-01-30T10:18:37;19.60;;;16.35;;
11620;SDS011;5866;49.094;11.900;2024-01-30T10:21:08;17.98;;;16.02;;
11620;SDS011;5866;49.094;11.900;2024-01-30T10:23:37;22.92;;;16.70;;
11620;SDS011;5866;49.094;11.900;2024-01-30T10:26:06;21.27;;;16.63;;
11620;SDS011;5866;49.094;11.900;2024-01-30T10:28:34;20.67;;;16.63;;
11620;SDS011;5866;49.094;11.900;2024-01-30T10:31:02;20.35;;;15.10;;
11620;SDS011;5866;49.094;11.900;2024-01-30T10:33:32;20.73;;;15.30;;
11620;SDS011;5866;49.094;11.900;2024-01-30T10:36:01;18.90;;;16.58;;
11620;SDS011;5866;49.094;11.900;2024-01-30T10:38:29;21.00;;;18.80;;
11620;SDS011;5866;49.094;11.900;2024-01-30T10:40:59;22.00;;;19.75;;
11620;SDS011;5866;49.094;11.900;2024-01-30T10:43:30;27.50;;;25.10;;
11620;SDS011;5866;49.094;11.900;2024-01-30T10:46:02;26.65;;;24.10;;
11620;SDS011;5866;49.094;11.900;2024-01-30T10:48:39;32.65;;;29.63;;
11620;SDS011;5866;49.094;11.900;2024-01-30T10:51:11;31.50;;;28.70;;
11620;SDS011;5866;49.094;11.900;2024-01-30T10:53:40;32.20;;;29.17;;
11620;SDS011;5866;49.094;11.900;2024-01-30T10:56:09;32.15;;;29.15;;
11620;SDS011;5866;49.094;11.900;2024-01-30T10:58:38;25.20;;;22.50;;
11620;SDS011;5866;49.094;11.900;2024-01-30T11:01:05;22.52;;;20.17;;
11620;SDS011;5866;49.094;11.900;2024-01-30T11:03:35;25.33;;;21.15;;
11620;SDS011;5866;49.094;11.900;2024-01-30T11:06:03;21.90;;;16.67;;
11620;SDS011;5866;49.094;11.900;2024-01-30T11:08:32;20.42;;;17.90;;
11620;SDS011;5866;49.094;11.900;2024-01-30T11:10:59;22.73;;;18.98;;
11620;SDS011;5866;49.094;11.900;2024-01-30T11:13:28;24.08;;;21.50;;
11620;SDS011;5866;49.094;11.900;2024-01-30T11:15:59;24.23;;;21.92;;
11620;SDS011;5866;49.094;11.900;2024-01-30T11:18:28;24.05;;;21.33;;
11620;SDS011;5866;49.094;11.900;2024-01-30T11:20:57;22.80;;;19.75;;
11620;SDS011;5866;49.094;11.900;2024-01-30T11:23:27;20.42;;;18.05;;
11620;SDS011;5866;49.094;11.900;2024-01-30T11:25:55;25.33;;;20.15;;
11620;SDS011;5866;49.094;11.900;2024-01-30T11:28:24;24.45;;;21.67;;
11620;SDS011;5866;49.094;11.900;2024-01-30T11:31:02;23.95;;;21.45;;
11620;SDS011;5866;49.094;11.900;2024-01-30T11:33:33;23.05;;;20.70;;
11620;SDS011;5866;49.094;11.900;2024-01-30T11:36:01;22.73;;;20.38;;
11620;SDS011;5866;49.094;11.900;2024-01-30T11:38:33;24.20;;;21.65;;
11620;SDS011;5866;49.094;11.900;2024-01-30T11:41:00;23.38;;;21.15;;
11620;SDS011;5866;49.094;11.900;2024-01-30T11:43:30;24.52;;;22.02;;
11620;SDS011;5866;49.094;11.900;2024-01-30T11:46:01;24.25;;;21.83;;
11620;SDS011;5866;49.094;11.900;2024-01-30T11:48:29;25.13;;;22.52;;
11620;SDS011;5866;49.094;11.900;2024-01-30T11:50:57;24.63;;;22.23;;
11620;SDS011;5866;49.094;11.900;2024-01-30T11:53:25;25.83;;;23.42;;
11620;SDS011;5866;49.094;11.900;2024-01-30T11:55:52;24.73;;;22.15;;
11620;SDS011;5866;49.094;11.900;2024-01-30T11:58:20;24.60;;;22.02;;
11620;SDS011;5866;49.094;11.900;2024-01-30T12:00:55;25.88;;;23.17;;
11620;SDS011;5866;49.094;11.900;2024-01-30T12:03:24;28.58;;;25.67;;
11620;SDS011;5866;49.094;11.900;2024-01-30T12:05:55;27.27;;;24.42;;
11620;SDS011;5866;49.094;11.900;2024-01-30T12:08:25;24.10;;;21.63;;
11620;SDS011;5866;49.094;11.900;2024-01-30T12:10:56;24.35;;;21.75;;
11620;SDS011;5866;49.094;11.900;2024-01-30T12:13:25;23.85;;;21.33;;
11620;SDS011;5866;49.094;11.900;2024-01-30T12:15:58;23.42;;;21.17;;
11620;SDS011;5866;49.094;11.900;2024-01-30T12:18:27;22.95;;;20.60;;
11620;SDS011;5866;49.094;11.900;2024-01-30T12:20:58;21.88;;;19.67;;
11620;SDS011;5866;49.094;11.900;2024-01-30T12:23:26;23.02;;;20.77;;
11620;SDS011;5866;49.094;11.900;2024-01-30T12:25:54;20.05;;;17.95;;
11620;SDS011;5866;49.094;11.900;2024-01-30T12:28:22;17.30;;;15.50;;
11620;SDS011;5866;49.094;11.900;2024-01-30T12:30:50;17.52;;;15.43;;
11620;SDS011;5866;49.094;11.900;2024-01-30T12:33:17;20.88;;;16.48;;
11620;SDS011;5866;49.094;11.900;2024-01-30T12:35:47;20.50;;;16.67;;
11620;SDS011;5866;49.094;11.900;2024-01-30T12:38:27;18.60;;;16.20;;
11620;SDS011;5866;49.094;11.900;2024-01-30T12:40:55;21.02;;;15.70;;
11620;SDS011;5866;49.094;11.900;2024-01-30T12:43:24;18.27;;;15.68;;
11620;SDS011;5866;49.094;11.900;2024-01-30T12:46:03;18.15;;;16.25;;
11620;SDS011;5866;49.094;11.900;2024-01-30T12:48:32;19.30;;;16.33;;
11620;SDS011;5866;49.094;11.900;2024-01-30T12:51:01;17.50;;;15.60;;
11620;SDS011;5866;49.094;11.900;2024-01-30T12:53:29;19.88;;;17.77;;
11620;SDS011;5866;49.094;11.900;2024-01-30T12:55:56;19.23;;;16.95;;
11620;SDS011;5866;49.094;11.900;2024-01-30T12:58:24;19.75;;;17.30;;
11620;SDS011;5866;49.094;11.900;2024-01-30T13:00:52;21.08;;;17.98;;
11620;SDS011;5866;49.094;11.900;2024-01-30T13:03:20;20.13;;;18.08;;
11620;SDS011;5866;49.094;11.900;2024-01-30T13:05:49;19.60;;;17.55;;
11620;SDS011;5866;49.094;11.900;2024-01-30T13:08:18;27.08;;;20.67;;
11620;SDS011;5866;49.094;11.900;2024-01-30T13:10:46;23.17;;;19.55;;
11620;SDS011;5866;49.094;11.900;2024-01-30T13:13:15;21.23;;;19.02;;
11620;SDS011;5866;49.094;11.900;2024-01-30T13:15:46;21.90;;;19.23;;
11620;SDS011;5866;49.094;11.900;2024-01-30T13:18:14;21.50;;;18.85;;
11620;SDS011;5866;49.094;11.900;2024-01-30T13:20:42;20.48;;;18.20;;
11620;SDS011;5866;49.094;11.900;2024-01-30T13:23:09;20.58;;;18.38;;
11620;SDS011;5866;49.094;11.900;2024-01-30T13:25:38;21.02;;;18.50;;
11620;SDS011;5866;49.094;11.900;2024-01-30T13:28:06;20.00;;;17.80;;
11620;SDS011;5866;49.094;11.900;2024-01-30T13:30:34;22.13;;;19.23;;
11620;SDS011;5866;49.094;11.900;2024-01-30T13:33:02;22.70;;;19.02;;
11620;SDS011;5866;49.094;11.900;2024-01-30T13:35:30;22.55;;;20.15;;
11620;SDS011;5866;49.094;11.900;2024-01-30T13:37:57;23.90;;;21.40;;
11620;SDS011;5866;49.094;11.900;2024-01-30T13:40:25;24.90;;;21.52;;
11620;SDS011;5866;49.094;11.900;2024-01-30T13:42:54;27.13;;;24.23;;
11620;SDS011;5866;49.094;11.900;2024-01-30T13:45:22;32.25;;;29.17;;
11620;SDS011;5866;49.094;11.900;2024-01-30T13:47:49;33.72;;;30.23;;
11620;SDS011;5866;49.094;11.900;2024-01-30T13:50:17;32.60;;;29.50;;
11620;SDS011;5866;49.094;11.900;2024-01-30T13:52:45;36.47;;;32.60;;
11620;SDS011;5866;49.094;11.900;2024-01-30T13:55:13;31.58;;;28.75;;
11620;SDS011;5866;49.094;11.900;2024-01-30T13:57:40;31.45;;;28.50;;
11620;SDS011;5866;49.094;11.900;2024-01-30T14:00:10;31.50;;;28.70;;
11620;SDS011;5866;49.094;11.900;2024-01-30T14:02:42;28.65;;;25.92;;
11620;SDS011;5866;49.094;11.900;2024-01-30T14:05:10;30.52;;;27.58;;
11620;SDS011;5866;49.094;11.900;2024-01-30T14:07:37;35.45;;;32.33;;
11620;SDS011;5866;49.094;11.900;2024-01-30T14:10:07;31.95;;;28.98;;
11620;SDS011;5866;49.094;11.900;2024-01-30T14:12:39;28.73;;;22.98;;
11620;SDS011;5866;49.094;11.900;2024-01-30T14:15:07;27.65;;;19.38;;
11620;SDS011;5866;49.094;11.900;2024-01-30T14:17:54;23.35;;;18.70;;
11620;SDS011;5866;49.094;11.900;2024-01-30T14:20:22;22.77;;;18.23;;
11620;SDS011;5866;49.094;11.900;2024-01-30T14:22:50;25.40;;;22.75;;
11620;SDS011;5866;49.094;11.900;2024-01-30T14:25:19;25.10;;;20.93;;